Time;durP1;ratioP1;P1;durP2;ratioP2;P2;SDS_P1;SDS_P2;PMS_P1;PMS_P2;Temp;Humidity;BMP_temperature;BMP_pressure;BME280_temperature;BME280_humidity;BME280_pressure;Samples;Min_cycle;Max_cycle;Signal;HPM_P1;HPM_P2
2024/01/14 00:01:18;;;;;;;45.73;18.07;;;-3.60;86.40;;;-1.41;61.15;97730.31;5072050;28;20052;-60
2024/01/14 00:03:45;;;;;;;38.57;16.43;;;-3.60;86.90;;;-1.53;60.87;97723.13;5072639;28;20504;-60
2024/01/14 00:06:13;;;;;;;34.60;15.90;;;-3.60;85.60;;;-1.51;60.78;97721.28;5063747;28;20037;-59
2024/01/14 00:08:41;;;;;;;38.27;16.37;;;-3.60;86.40;;;-1.56;60.78;97710.25;5072710;28;20492;-60
2024/01/14 00:11:09;;;;;;;34.97;15.37;;;-3.70;85.60;;;-1.52;61.01;97711.75;5071824;28;20052;-60
2024/01/14 00:13:36;;;;;;;31.33;13.67;;;-3.60;86.60;;;-1.41;61.11;97712.03;5070614;28;20344;-60
2024/01/14 00:16:04;;;;;;;40.97;13.53;;;-3.50;86.30;;;-1.45;60.53;97706.13;5072449;28;20411;-60
2024/01/14 00:18:32;;;;;;;35.73;15.03;;;-3.60;85.10;;;-1.41;60.49;97701.56;5072377;28;20040;-60
2024/01/14 00:21:00;;;;;;;32.13;14.33;;;-3.50;85.40;;;-1.43;60.60;97692.97;5071917;28;20049;-60
2024/01/14 00:23:27;;;;;;;28.67;13.30;;;-3.50;85.10;;;-1.44;60.82;97694.72;5070916;28;20051;-59
2024/01/14 00:25:56;;;;;;;35.10;14.77;;;-3.50;85.30;;;-1.34;60.86;97686.38;5071891;28;20059;-60
2024/01/14 00:28:23;;;;;;;28.73;13.80;;;-3.40;86.10;;;-1.33;60.65;97690.69;5071007;28;20053;-60
2024/01/14 00:30:51;;;;;;;36.37;14.77;;;-3.40;84.70;;;-1.29;60.28;97684.38;5071732;28;20049;-60
2024/01/14 00:33:19;;;;;;;42.63;14.87;;;-3.40;85.30;;;-1.32;60.57;97693.19;5071734;28;20059;-60
2024/01/14 00:35:47;;;;;;;34.93;14.10;;;-3.50;84.60;;;-1.45;60.60;97690.44;5072151;28;20048;-60
2024/01/14 00:38:15;;;;;;;39.20;16.17;;;-3.60;84.90;;;-1.58;60.67;97687.66;5071884;28;20052;-59
2024/01/14 00:40:43;;;;;;;37.40;15.70;;;-3.70;86.50;;;-1.53;60.51;97684.81;5071629;28;20059;-59
2024/01/14 00:43:10;;;;;;;39.80;15.63;;;-3.70;87.20;;;-1.58;61.03;97677.22;5071293;28;20040;-60
2024/01/14 00:45:38;;;;;;;39.57;15.70;;;-3.70;85.70;;;-1.59;61.08;97670.34;5071708;28;20045;-60
2024/01/14 00:48:06;;;;;;;34.53;14.70;;;-3.70;87.60;;;-1.54;60.85;97657.00;5071647;28;20044;-60
2024/01/14 00:50:33;;;;;;;39.53;15.43;;;-3.70;87.70;;;-1.47;60.83;97662.75;5071853;28;20045;-60
2024/01/14 00:53:01;;;;;;;41.13;15.07;;;-3.60;87.20;;;-1.43;60.72;97646.81;5069393;28;20052;-59
2024/01/14 00:55:29;;;;;;;40.47;14.87;;;-3.50;86.40;;;-1.48;60.68;97641.00;5071493;28;20044;-59
2024/01/14 00:58:00;;;;;;;37.93;14.63;;;-3.50;86.10;;;-1.50;60.90;97645.47;5071340;28;20067;-59
2024/01/14 01:00:28;;;;;;;33.70;15.00;;;-3.60;85.40;;;-1.56;61.06;97631.91;5071581;28;20045;-60
2024/01/14 01:02:56;;;;;;;39.90;14.27;;;-3.70;86.00;;;-1.64;60.65;97632.34;5069851;28;20067;-59
2024/01/14 01:05:24;;;;;;;29.57;13.20;;;-3.70;86.30;;;-1.71;60.66;97631.84;5070642;28;20503;-60
2024/01/14 01:07:52;;;;;;;42.60;15.20;;;-3.80;85.80;;;-1.82;61.32;97629.00;5070600;28;20049;-59
2024/01/14 01:10:19;;;;;;;35.53;14.80;;;-3.80;86.40;;;-1.81;61.22;97621.06;5063394;28;20045;-60
2024/01/14 01:12:47;;;;;;;34.27;15.33;;;-3.80;87.80;;;-1.68;60.68;97621.22;5071074;28;20101;-59
2024/01/14 01:15:15;;;;;;;39.53;15.10;;;-3.80;88.20;;;-1.62;60.87;97620.88;5071144;28;20071;-59
2024/01/14 01:17:42;;;;;;;32.10;13.83;;;-3.70;87.70;;;-1.50;60.98;97613.28;5071328;28;20491;-59
2024/01/14 01:20:11;;;;;;;44.33;14.87;;;-3.60;87.60;;;-1.41;60.94;97624.06;5070967;28;20405;-59
2024/01/14 01:22:38;;;;;;;38.77;14.07;;;-3.50;86.40;;;-1.52;61.09;97616.00;5070770;28;20038;-59
2024/01/14 01:25:06;;;;;;;36.20;13.23;;;-3.60;85.80;;;-1.47;60.53;97619.19;5070890;28;20051;-59
2024/01/14 01:27:34;;;;;;;38.30;15.17;;;-3.60;86.30;;;-1.39;60.63;97610.91;5071208;28;20060;-59
2024/01/14 01:30:03;;;;;;;34.97;15.33;;;-3.50;86.90;;;-1.35;60.74;97606.38;5069222;28;20049;-59
2024/01/14 01:32:31;;;;;;;33.43;14.50;;;-3.50;85.90;;;-1.33;60.23;97600.13;5070528;28;20059;-59
2024/01/14 01:34:59;;;;;;;35.83;14.27;;;-3.50;86.00;;;-1.25;60.37;97591.84;5070926;28;20048;-59
2024/01/14 01:37:27;;;;;;;37.53;13.70;;;-3.40;85.90;;;-1.17;60.48;97586.16;5070809;28;20496;-59
2024/01/14 01:39:54;;;;;;;45.10;15.67;;;-3.30;85.20;;;-1.14;60.22;97575.50;5070956;28;20075;-59
2024/01/14 01:42:22;;;;;;;42.77;15.07;;;-3.20;85.30;;;-1.20;60.37;97580.19;5062131;28;20051;-58
2024/01/14 01:44:50;;;;;;;44.20;14.87;;;-3.40;85.40;;;-1.21;60.36;97573.25;5069527;28;20036;-59
2024/01/14 01:47:19;;;;;;;39.00;15.00;;;-3.40;84.80;;;-1.31;60.28;97568.69;5070629;28;20037;-59
2024/01/14 01:49:47;;;;;;;44.53;16.67;;;-3.50;84.30;;;-1.32;59.91;97562.59;5069493;28;20044;-59
2024/01/14 01:52:15;;;;;;;45.27;14.90;;;-3.50;84.40;;;-1.36;60.48;97574.16;5070463;28;20661;-59
2024/01/14 01:54:44;;;;;;;36.03;13.97;;;-3.60;84.60;;;-1.36;59.43;97575.94;5069565;28;20041;-59
2024/01/14 01:57:13;;;;;;;43.10;15.80;;;-3.60;84.50;;;-1.43;60.08;97578.91;5069152;28;20044;-60
2024/01/14 01:59:45;;;;;;;41.00;16.23;;;-3.60;84.70;;;-1.42;60.29;97574.53;5069549;28;20048;-58
2024/01/14 02:02:13;;;;;;;42.50;16.13;;;-3.70;85.50;;;-1.47;60.13;97566.97;5068378;28;20048;-59
2024/01/14 02:04:41;;;;;;;44.93;16.23;;;-3.70;86.00;;;-1.43;60.15;97565.03;5067853;28;20408;-59
2024/01/14 02:07:09;;;;;;;52.17;20.93;;;-3.60;85.60;;;-1.54;60.61;97556.97;5069506;28;20048;-60
2024/01/14 02:09:38;;;;;;;42.80;16.97;;;-3.70;85.60;;;-1.74;60.19;97561.53;5060825;28;20048;-59
2024/01/14 02:12:05;;;;;;;43.63;16.27;;;-3.80;85.70;;;-1.63;60.46;97559.16;5068931;28;20040;-59
2024/01/14 02:14:33;;;;;;;37.40;14.97;;;-3.80;86.60;;;-1.65;60.57;97549.72;5070570;28;20107;-59
2024/01/14 02:17:01;;;;;;;40.97;15.23;;;-3.70;85.70;;;-1.62;60.13;97553.00;5070544;28;20044;-59
2024/01/14 02:19:29;;;;;;;36.80;14.63;;;-3.70;85.90;;;-1.49;60.46;97545.31;5071273;28;20054;-59
2024/01/14 02:22:05;;;;;;;42.47;15.50;;;-3.60;86.10;;;-1.46;60.61;97546.91;5074227;28;20048;-59
2024/01/14 02:24:34;;;;;;;37.33;15.63;;;-3.50;84.50;;;-1.44;60.37;97540.66;5066016;28;20045;-59
2024/01/14 02:27:02;;;;;;;37.27;15.77;;;-3.50;85.20;;;-1.45;60.10;97540.75;5074337;28;20431;-59
2024/01/14 02:29:30;;;;;;;42.50;16.83;;;-3.60;84.70;;;-1.47;60.42;97546.06;5074281;28;20044;-59
2024/01/14 02:31:58;;;;;;;39.47;14.37;;;-3.60;85.30;;;-1.43;60.36;97542.34;5072742;28;20044;-59
2024/01/14 02:34:25;;;;;;;47.13;14.80;;;-3.60;86.20;;;-1.52;60.20;97542.88;5073572;28;20058;-59
2024/01/14 02:36:53;;;;;;;41.67;16.60;;;-3.70;85.90;;;-1.45;60.59;97538.16;5055941;28;20041;-60
2024/01/14 02:39:21;;;;;;;71.17;26.53;;;-3.60;86.30;;;-1.50;60.45;97540.19;5073998;28;20400;-59
2024/01/14 02:41:48;;;;;;;47.73;17.17;;;-3.70;85.80;;;-1.60;60.52;97539.88;5071377;28;20044;-59
2024/01/14 02:44:16;;;;;;;67.57;30.47;;;-3.70;86.10;;;-1.57;60.75;97531.88;5073560;28;20514;-59
2024/01/14 02:46:44;;;;;;;47.37;20.30;;;-3.80;86.60;;;-1.54;60.54;97528.25;5074023;28;20037;-58
2024/01/14 02:49:11;;;;;;;47.20;17.90;;;-3.70;86.50;;;-1.61;60.58;97519.91;5073638;28;20134;-59
2024/01/14 02:51:39;;;;;;;48.60;17.10;;;-3.80;87.50;;;-1.65;60.81;97523.63;5073487;28;20047;-59
2024/01/14 02:54:07;;;;;;;36.33;17.17;;;-3.80;87.40;;;-1.78;60.99;97523.50;5072314;28;20056;-59
2024/01/14 02:56:35;;;;;;;41.20;15.93;;;-3.90;87.10;;;-1.88;61.40;97524.94;5073861;28;20044;-59
2024/01/14 02:59:02;;;;;;;51.47;18.17;;;-4.00;87.40;;;-2.00;61.56;97522.09;5073813;28;20047;-59
2024/01/14 03:01:30;;;;;;;45.73;18.90;;;-4.00;88.00;;;-1.96;61.31;97517.53;5063525;28;20044;-59
2024/01/14 03:03:58;;;;;;;40.30;15.57;;;-4.00;88.60;;;-1.87;61.41;97530.06;5073394;28;20531;-59
2024/01/14 03:06:26;;;;;;;41.77;15.40;;;-4.00;88.20;;;-2.10;61.27;97522.69;5072725;28;20047;-60
2024/01/14 03:08:54;;;;;;;40.37;16.00;;;-4.10;87.50;;;-2.21;61.57;97521.53;5080167;28;20032;-59
2024/01/14 03:11:21;;;;;;;47.33;17.97;;;-4.20;87.30;;;-2.17;61.75;97524.81;5072976;28;20041;-59
2024/01/14 03:13:49;;;;;;;57.77;18.20;;;-4.20;87.90;;;-2.24;61.54;97513.88;5073553;28;20040;-59
2024/01/14 03:16:18;;;;;;;44.43;16.50;;;-4.20;88.20;;;-2.15;61.66;97517.75;5071729;28;20045;-59
2024/01/14 03:18:46;;;;;;;38.00;14.37;;;-4.10;88.10;;;-2.06;61.55;97521.59;5072449;28;20040;-59
2024/01/14 03:21:18;;;;;;;42.97;16.03;;;-4.10;88.60;;;-2.00;61.46;97521.25;5073099;28;20044;-59
2024/01/14 03:23:46;;;;;;;46.87;16.60;;;-4.00;87.30;;;-1.93;61.27;97517.38;5073126;28;20041;-59
2024/01/14 03:26:14;;;;;;;38.07;13.90;;;-3.90;88.00;;;-1.91;61.44;97523.34;5072156;28;20044;-60
2024/01/14 03:28:41;;;;;;;41.50;17.40;;;-3.90;87.20;;;-1.92;61.30;97529.50;5073418;28;20045;-59
2024/01/14 03:31:16;;;;;;;45.33;17.20;;;-3.90;86.80;;;-2.03;61.22;97532.72;5072030;28;20051;-58
2024/01/14 03:33:44;;;;;;;35.00;14.33;;;-4.00;86.10;;;-2.18;61.31;97517.91;5073284;28;20037;-59
2024/01/14 03:36:15;;;;;;;39.73;14.77;;;-4.10;87.00;;;-2.09;61.37;97527.00;5072815;28;20041;-59
2024/01/14 03:38:43;;;;;;;40.63;15.50;;;-4.10;87.10;;;-2.01;61.25;97522.19;5073090;28;20044;-59
2024/01/14 03:41:12;;;;;;;41.57;15.03;;;-4.00;87.80;;;-2.03;61.44;97517.06;5072537;28;20060;-59
2024/01/14 03:43:39;;;;;;;36.67;13.87;;;-3.90;86.30;;;-1.94;61.31;97514.84;5072737;28;20405;-59
2024/01/14 03:46:08;;;;;;;27.97;10.13;;;-3.90;86.60;;;-1.86;61.06;97512.63;5072995;28;20047;-59
2024/01/14 03:48:37;;;;;;;43.77;14.27;;;-3.80;86.10;;;-1.92;61.28;97506.03;5072669;28;20045;-59
2024/01/14 03:51:05;;;;;;;40.60;14.80;;;-3.90;86.30;;;-1.94;60.78;97513.06;5072533;28;20044;-59
2024/01/14 03:53:32;;;;;;;38.47;15.67;;;-3.90;86.30;;;-1.95;60.98;97508.78;5072509;28;20115;-59
2024/01/14 03:56:00;;;;;;;41.07;15.63;;;-3.90;87.40;;;-1.86;60.92;97505.66;5072766;28;20036;-60
2024/01/14 03:58:28;;;;;;;37.33;16.57;;;-3.90;87.00;;;-1.94;61.55;97507.84;5072953;28;20044;-59
2024/01/14 04:00:55;;;;;;;28.53;12.10;;;-3.90;87.30;;;-1.94;61.52;97507.00;5072486;28;20040;-60
2024/01/14 04:03:23;;;;;;;31.30;12.10;;;-3.90;86.50;;;-2.04;61.11;97506.69;5070310;28;20052;-60
2024/01/14 04:05:51;;;;;;;44.27;16.10;;;-4.00;87.10;;;-2.02;61.46;97510.88;5071816;28;20045;-59
2024/01/14 04:08:19;;;;;;;38.87;15.77;;;-4.00;87.10;;;-2.00;61.39;97508.19;5072407;28;20049;-59
2024/01/14 04:10:46;;;;;;;46.70;17.23;;;-4.00;88.50;;;-2.11;61.27;97516.66;5087808;28;20047;-59
2024/01/14 04:13:14;;;;;;;35.43;13.70;;;-4.10;87.30;;;-2.08;61.70;97519.06;5072038;28;20096;-59
2024/01/14 04:15:41;;;;;;;34.53;14.97;;;-4.10;87.50;;;-2.33;61.42;97518.75;5072212;28;20040;-59
2024/01/14 04:18:09;;;;;;;34.10;13.00;;;-4.30;87.30;;;-2.19;61.25;97519.69;5072308;28;20052;-59
2024/01/14 04:20:37;;;;;;;29.07;12.63;;;-4.20;87.50;;;-2.26;61.32;97513.13;5072021;28;20040;-59
2024/01/14 04:23:04;;;;;;;27.50;11.73;;;-4.20;87.30;;;-2.48;61.60;97518.69;5072043;28;20063;-59
2024/01/14 04:25:32;;;;;;;33.30;13.83;;;-4.30;86.50;;;-2.35;61.57;97513.63;5078781;28;20053;-59
2024/01/14 04:28:02;;;;;;;31.60;13.47;;;-4.30;87.30;;;-2.28;61.46;97516.75;5072081;28;20032;-60
2024/01/14 04:30:29;;;;;;;32.30;13.33;;;-4.20;87.10;;;-2.16;61.36;97516.06;5070250;28;20041;-58
2024/01/14 04:32:58;;;;;;;30.27;13.63;;;-4.20;87.40;;;-2.29;61.36;97513.28;5071669;28;20411;-59
2024/01/14 04:35:26;;;;;;;38.63;14.23;;;-4.30;87.20;;;-2.19;61.00;97509.25;5071692;28;20052;-59
2024/01/14 04:37:54;;;;;;;34.37;12.93;;;-4.20;88.00;;;-2.16;61.11;97515.22;5070834;28;20044;-60
2024/01/14 04:40:22;;;;;;;31.17;13.40;;;-4.20;86.60;;;-2.20;61.71;97512.78;5071644;28;20420;-60
2024/01/14 04:42:50;;;;;;;39.27;13.70;;;-4.20;87.00;;;-2.23;61.20;97517.31;5071336;28;20045;-59
2024/01/14 04:45:17;;;;;;;36.87;14.67;;;-4.20;87.60;;;-2.26;61.32;97517.50;5071302;28;20036;-59
2024/01/14 04:47:46;;;;;;;41.60;16.83;;;-4.30;87.70;;;-2.42;62.07;97523.56;5071807;28;20041;-59
2024/01/14 04:50:14;;;;;;;37.03;16.03;;;-4.30;88.40;;;-2.35;61.65;97524.03;5070315;28;20041;-59
2024/01/14 04:52:42;;;;;;;30.23;11.80;;;-4.40;89.90;;;-2.67;62.67;97523.19;5071320;28;20044;-59
2024/01/14 04:55:10;;;;;;;39.60;17.07;;;-4.50;89.30;;;-2.64;62.60;97523.84;5070092;28;20043;-59
2024/01/14 04:57:38;;;;;;;33.47;13.67;;;-4.50;91.10;;;-2.59;62.45;97523.63;5078152;28;20436;-59
2024/01/14 05:00:07;;;;;;;33.00;15.23;;;-4.50;89.50;;;-2.57;62.54;97532.19;5071413;28;20048;-60
2024/01/14 05:02:35;;;;;;;37.23;16.40;;;-4.40;90.50;;;-2.59;62.80;97521.03;5071024;28;20056;-58
2024/01/14 05:05:02;;;;;;;43.27;15.93;;;-4.40;90.00;;;-2.52;62.63;97519.78;5067262;28;20518;-59
2024/01/14 05:07:30;;;;;;;35.23;15.47;;;-4.40;90.70;;;-2.62;62.98;97522.03;5071362;28;20052;-59
2024/01/14 05:09:58;;;;;;;45.10;16.13;;;-4.40;90.90;;;-2.53;62.85;97522.47;5071328;28;20044;-59
2024/01/14 05:12:26;;;;;;;45.60;15.50;;;-4.40;91.10;;;-2.43;62.73;97521.84;5070961;28;20048;-59
2024/01/14 05:14:54;;;;;;;41.03;16.47;;;-4.30;91.90;;;-2.35;62.67;97515.38;5071199;28;20044;-59
2024/01/14 05:17:22;;;;;;;43.20;17.67;;;-4.30;91.00;;;-2.42;62.61;97518.34;5069816;28;20049;-59
2024/01/14 05:19:51;;;;;;;38.03;17.03;;;-4.30;90.80;;;-2.31;62.68;97511.69;5069964;28;20428;-58
2024/01/14 05:22:19;;;;;;;43.07;16.53;;;-4.30;90.50;;;-2.39;62.66;97512.94;5069874;28;20051;-58
2024/01/14 05:24:47;;;;;;;46.40;17.87;;;-4.30;91.40;;;-2.49;63.07;97516.97;5071041;28;20067;-58
2024/01/14 05:27:15;;;;;;;38.00;15.00;;;-4.40;91.80;;;-2.39;62.85;97515.53;5071393;28;20040;-59
2024/01/14 05:29:43;;;;;;;36.63;15.90;;;-4.30;92.10;;;-2.39;62.72;97504.28;5071350;28;20041;-58
2024/01/14 05:32:15;;;;;;;43.70;15.80;;;-4.40;91.30;;;-2.41;62.99;97503.53;5077788;28;20061;-59
2024/01/14 05:34:45;;;;;;;46.03;16.87;;;-4.40;91.30;;;-2.40;62.92;97511.28;5069678;28;20051;-59
2024/01/14 05:37:12;;;;;;;39.53;13.83;;;-4.30;92.50;;;-2.45;62.98;97520.28;5070980;28;20048;-59
2024/01/14 05:39:40;;;;;;;49.90;18.13;;;-4.40;91.80;;;-2.45;62.67;97502.84;5069442;28;20071;-58
2024/01/14 05:42:08;;;;;;;47.77;16.47;;;-4.40;91.50;;;-2.50;63.25;97504.03;5070623;28;20048;-59
2024/01/14 05:44:36;;;;;;;46.10;18.03;;;-4.40;92.40;;;-2.49;63.42;97510.94;5070448;28;20059;-59
2024/01/14 05:47:04;;;;;;;44.27;18.20;;;-4.40;92.00;;;-2.38;63.11;97498.16;5070530;28;20033;-58
2024/01/14 05:49:31;;;;;;;45.60;13.63;;;-4.30;92.50;;;-2.43;63.46;97492.34;5070492;28;20051;-59
2024/01/14 05:51:59;;;;;;;39.77;16.17;;;-4.30;90.60;;;-2.36;62.95;97493.69;5070270;28;20419;-59
2024/01/14 05:54:28;;;;;;;44.73;17.43;;;-4.30;91.50;;;-2.25;62.65;97486.13;5070085;28;20492;-59
2024/01/14 05:56:57;;;;;;;41.70;16.87;;;-4.30;91.90;;;-2.17;62.71;97485.69;5070736;28;20048;-59
2024/01/14 05:59:25;;;;;;;46.33;17.87;;;-4.20;92.60;;;-2.18;62.96;97489.22;5069233;28;20048;-59
2024/01/14 06:01:53;;;;;;;34.10;15.20;;;-4.10;91.30;;;-2.08;62.38;97485.16;5070045;28;20049;-59
2024/01/14 06:04:20;;;;;;;48.67;18.33;;;-4.10;91.40;;;-2.07;62.32;97475.59;5070375;28;20044;-59
2024/01/14 06:06:48;;;;;;;39.77;16.53;;;-4.10;90.60;;;-2.19;62.31;97475.34;5069951;28;20040;-58
2024/01/14 06:09:16;;;;;;;46.43;16.23;;;-4.10;88.80;;;-2.14;62.24;97484.66;5070543;28;20044;-58
2024/01/14 06:11:44;;;;;;;39.93;17.70;;;-4.20;89.70;;;-2.14;62.60;97482.91;5069976;28;20044;-59
2024/01/14 06:14:12;;;;;;;38.47;15.47;;;-4.20;89.70;;;-2.08;62.42;97476.50;5070260;28;20037;-59
2024/01/14 06:16:40;;;;;;;45.90;16.27;;;-4.20;90.50;;;-1.97;62.44;97476.72;5069980;28;20056;-59
2024/01/14 06:19:08;;;;;;;44.57;16.17;;;-4.00;90.20;;;-2.12;62.25;97468.00;5070607;28;20045;-59
2024/01/14 06:21:44;;;;;;;43.23;16.60;;;-4.10;89.00;;;-2.02;62.07;97468.31;5069825;28;20496;-59
2024/01/14 06:24:15;;;;;;;42.63;17.27;;;-4.10;90.50;;;-1.95;62.41;97471.44;5069352;28;20049;-59
2024/01/14 06:26:43;;;;;;;44.93;17.43;;;-4.00;90.40;;;-1.86;62.15;97470.88;5070271;28;20049;-60
2024/01/14 06:29:11;;;;;;;44.23;17.00;;;-4.00;89.60;;;-1.81;62.08;97461.84;5070506;28;20511;-59
2024/01/14 06:31:44;;;;;;;47.40;16.60;;;-3.90;89.30;;;-1.73;61.76;97457.97;5069548;28;20044;-59
2024/01/14 06:34:12;;;;;;;31.48;11.40;;;-3.80;89.30;;;-1.69;61.43;97462.91;5069009;28;20040;-58
2024/01/14 06:36:40;;;;;;;44.83;15.83;;;-3.70;88.40;;;-1.62;61.14;97459.03;5070076;28;20052;-59
2024/01/14 06:39:07;;;;;;;42.53;13.87;;;-3.60;87.50;;;-1.58;61.14;97449.25;5070290;28;20041;-59
2024/01/14 06:41:36;;;;;;;41.07;16.10;;;-3.70;86.60;;;-1.56;61.30;97443.94;5075708;28;20053;-59
2024/01/14 06:44:04;;;;;;;59.30;22.43;;;-3.70;86.40;;;-1.52;61.14;97443.66;5070150;28;20389;-59
2024/01/14 06:46:32;;;;;;;39.83;16.03;;;-3.60;85.80;;;-1.50;61.24;97438.34;5069893;28;20043;-60
2024/01/14 06:49:00;;;;;;;46.03;18.20;;;-3.70;86.00;;;-1.49;61.09;97433.03;5070146;28;20511;-59
2024/01/14 06:51:28;;;;;;;42.80;17.90;;;-3.60;85.80;;;-1.49;60.89;97429.56;5069822;28;20053;-60
2024/01/14 06:53:55;;;;;;;39.10;15.13;;;-3.70;85.20;;;-1.49;60.92;97422.59;5070309;28;20044;-59
2024/01/14 06:56:23;;;;;;;36.93;15.97;;;-3.70;85.30;;;-1.54;60.30;97427.25;5070236;28;20044;-59
2024/01/14 06:58:52;;;;;;;34.50;14.40;;;-3.70;84.90;;;-1.55;60.54;97422.97;5070502;28;20048;-60
2024/01/14 07:01:19;;;;;;;33.63;13.23;;;-3.70;84.80;;;-1.53;60.21;97418.50;5068495;28;20048;-60
2024/01/14 07:03:47;;;;;;;30.93;13.23;;;-3.70;83.70;;;-1.54;59.90;97416.78;5069883;28;20048;-59
2024/01/14 07:06:15;;;;;;;34.77;15.17;;;-3.70;83.40;;;-1.53;60.37;97410.66;5069708;28;20048;-59
2024/01/14 07:08:43;;;;;;;38.10;15.73;;;-3.70;84.00;;;-1.51;60.64;97413.16;5073536;28;20040;-60
2024/01/14 07:11:11;;;;;;;40.53;14.17;;;-3.60;83.60;;;-1.50;60.58;97402.63;5073147;28;20041;-59
2024/01/14 07:13:43;;;;;;;34.03;13.63;;;-3.70;84.00;;;-1.47;60.32;97409.44;5073414;28;20064;-59
2024/01/14 07:16:11;;;;;;;33.30;13.50;;;-3.70;83.50;;;-1.47;60.32;97409.44;5073626;28;20044;-59
2024/01/14 07:18:39;;;;;;;40.40;15.03;;;-3.80;82.90;;;-1.50;60.24;97393.97;5073346;28;20055;-59
2024/01/14 07:21:12;;;;;;;31.87;13.13;;;-3.80;83.60;;;-1.50;59.90;97402.63;5071267;28;20424;-59
2024/01/14 07:23:40;;;;;;;31.73;11.75;;;-3.80;83.40;;;-1.49;60.04;97400.84;5073253;28;20476;-60
2024/01/14 07:26:15;;;;;;;41.08;14.93;;;-3.80;83.30;;;-1.47;59.73;97399.84;5073412;28;20040;-60
2024/01/14 07:28:43;;;;;;;26.47;13.10;;;-3.80;83.00;;;-1.53;59.57;97400.22;5072272;28;20040;-58
2024/01/14 07:31:12;;;;;;;35.13;12.83;;;-3.90;81.40;;;-1.58;59.66;97387.41;5072809;28;20044;-59
2024/01/14 07:33:41;;;;;;;29.27;13.27;;;-3.90;82.90;;;-1.63;59.68;97393.84;5073058;28;20049;-59
2024/01/14 07:36:09;;;;;;;32.03;14.27;;;-4.00;82.70;;;-1.66;59.83;97396.66;5073274;28;20048;-60
2024/01/14 07:38:36;;;;;;;33.13;13.83;;;-4.00;82.90;;;-1.68;59.16;97385.47;5073081;28;20052;-59
2024/01/14 07:41:05;;;;;;;33.03;13.43;;;-4.00;83.00;;;-1.69;59.44;97384.59;5072516;28;20040;-59
2024/01/14 07:43:33;;;;;;;34.00;13.50;;;-4.00;82.70;;;-1.71;59.47;97383.03;5072529;28;20040;-58
2024/01/14 07:46:00;;;;;;;37.57;14.50;;;-4.00;82.70;;;-1.71;59.32;97375.19;5073033;28;20045;-58
2024/01/14 07:48:28;;;;;;;36.60;15.43;;;-4.00;81.80;;;-1.74;59.28;97375.41;5064191;28;20051;-59
2024/01/14 07:50:56;;;;;;;24.47;11.87;;;-4.10;82.50;;;-1.76;58.92;97377.22;5071844;28;20040;-58
2024/01/14 07:53:23;;;;;;;47.13;16.57;;;-4.10;82.20;;;-1.83;59.26;97369.75;5072039;28;20044;-59
2024/01/14 07:55:51;;;;;;;31.23;14.33;;;-4.20;82.00;;;-1.83;59.06;97368.94;5072532;28;20052;-59
2024/01/14 07:58:18;;;;;;;35.83;13.83;;;-4.20;82.70;;;-1.84;59.21;97362.88;5070482;28;20053;-58
2024/01/14 08:00:47;;;;;;;39.47;18.73;;;-4.10;82.30;;;-1.87;59.03;97364.84;5070008;28;20056;-60
2024/01/14 08:03:28;;;;;;;36.60;16.23;;;-4.20;82.20;;;-1.87;59.05;97357.84;5071274;28;20044;-60
2024/01/14 08:05:56;;;;;;;39.43;14.03;;;-4.10;82.50;;;-1.87;59.35;97355.22;5070415;28;20043;-59
2024/01/14 08:08:24;;;;;;;42.13;15.90;;;-4.10;82.60;;;-1.86;59.51;97348.22;5070614;28;20041;-60
2024/01/14 08:10:53;;;;;;;33.60;14.77;;;-4.10;82.50;;;-1.86;59.49;97343.88;5071094;28;20048;-61
2024/01/14 08:13:21;;;;;;;47.67;18.60;;;-4.10;82.40;;;-1.87;59.10;97334.34;5071425;28;20356;-60
2024/01/14 08:15:48;;;;;;;37.83;15.13;;;-4.10;82.40;;;-1.87;59.25;97331.75;5070393;28;20048;-60
2024/01/14 08:18:29;;;;;;;39.93;16.53;;;-4.10;82.80;;;-1.88;59.07;97330.06;5071216;28;20057;-60
2024/01/14 08:20:59;;;;;;;34.13;15.93;;;-4.10;82.40;;;-1.91;59.06;97325.03;5071267;28;20431;-61
2024/01/14 08:23:32;;;;;;;33.43;14.33;;;-4.10;83.60;;;-1.88;59.40;97322.25;5071569;28;20052;-60
2024/01/14 08:26:01;;;;;;;39.50;15.37;;;-4.10;83.20;;;-1.84;59.34;97321.13;5063236;28;20036;-59
2024/01/14 08:28:35;;;;;;;35.87;15.13;;;-4.00;82.50;;;-1.84;59.85;97321.13;5069625;28;20044;-60
2024/01/14 08:31:03;;;;;;;;;;;-4.00;83.40;;;-1.79;59.72;97328.66;5062213;28;20447;-59
2024/01/14 08:33:31;;;;;;;37.33;15.63;;;-3.90;83.00;;;-1.76;59.22;97338.94;5070932;28;19921;-60
2024/01/14 08:35:59;;;;;;;35.63;13.93;;;-3.90;82.90;;;-1.74;59.30;97336.25;5070852;28;20036;-60
2024/01/14 08:38:27;;;;;;;41.33;14.27;;;-4.00;82.90;;;-1.72;59.05;97334.38;5071146;28;20055;-60
2024/01/14 08:40:55;;;;;;;34.67;13.43;;;-3.90;83.40;;;-1.69;59.23;97332.41;5070124;28;20048;-60
2024/01/14 08:43:22;;;;;;;45.17;15.57;;;-3.90;83.10;;;-1.65;59.40;97336.53;5070650;28;20033;-60
2024/01/14 08:45:50;;;;;;;39.40;17.27;;;-3.80;82.60;;;-1.61;59.39;97338.03;5070776;28;20049;-59
2024/01/14 08:48:18;;;;;;;41.40;17.23;;;-3.80;82.70;;;-1.55;59.22;97330.72;5070491;28;20041;-60
2024/01/14 08:50:46;;;;;;;37.83;15.27;;;-3.70;83.30;;;-1.50;59.19;97336.50;5069355;28;20045;-60
2024/01/14 08:53:13;;;;;;;42.67;15.30;;;-3.60;82.90;;;-1.45;59.42;97334.47;5070314;28;20037;-60
2024/01/14 08:55:41;;;;;;;39.80;15.77;;;-3.60;82.60;;;-1.41;59.34;97336.78;5070636;28;20052;-59
2024/01/14 08:58:09;;;;;;;39.37;15.43;;;-3.50;81.80;;;-1.37;59.65;97324.38;5070374;28;20055;-60
2024/01/14 09:00:36;;;;;;;41.00;14.90;;;-3.50;82.30;;;-1.33;59.46;97330.25;5070578;28;20040;-60
2024/01/14 09:03:04;;;;;;;36.90;13.97;;;-3.50;82.10;;;-1.31;59.17;97328.41;5062349;28;20040;-61
2024/01/14 09:05:32;;;;;;;37.43;15.60;;;-3.40;81.80;;;-1.28;59.63;97323.81;5070113;28;20071;-60
2024/01/14 09:08:00;;;;;;;35.60;15.07;;;-3.40;81.70;;;-1.25;59.50;97323.63;5070138;28;20045;-60
2024/01/14 09:10:27;;;;;;;38.97;15.57;;;-3.30;81.70;;;-1.20;59.41;97312.91;5070475;28;20048;-60
2024/01/14 09:12:55;;;;;;;31.17;12.67;;;-3.20;81.10;;;-1.14;59.88;97317.72;5061031;28;20048;-61
2024/01/14 09:15:22;;;;;;;38.60;15.30;;;-3.10;80.80;;;-1.10;59.28;97316.59;5070371;28;20052;-60
2024/01/14 09:17:51;;;;;;;33.23;12.93;;;-3.10;80.00;;;-1.06;59.23;97306.78;5069044;28;20056;-60
2024/01/14 09:20:19;;;;;;;38.33;13.93;;;-3.10;79.90;;;-1.03;59.46;97307.44;5069582;28;20052;-61
2024/01/14 09:22:47;;;;;;;38.00;13.47;;;-3.10;80.00;;;-1.02;58.66;97301.25;5069485;28;20424;-60
2024/01/14 09:25:15;;;;;;;33.37;15.93;;;-3.10;80.20;;;-0.97;59.40;97305.34;5070876;28;20044;-60
2024/01/14 09:27:43;;;;;;;34.23;14.63;;;-3.00;79.40;;;-0.96;59.46;97301.81;5070937;28;20048;-60
2024/01/14 09:30:12;;;;;;;40.83;15.67;;;-3.10;79.50;;;-0.94;59.53;97303.38;5070200;28;20029;-61
2024/01/14 09:32:40;;;;;;;39.53;15.97;;;-3.10;79.70;;;-0.92;59.51;97298.06;5070688;28;20049;-60
2024/01/14 09:35:08;;;;;;;34.27;15.77;;;-3.00;79.70;;;-0.90;59.36;97289.19;5063078;28;20567;-60
2024/01/14 09:37:36;;;;;;;35.10;13.50;;;-2.90;79.70;;;-0.87;59.19;97285.56;5070850;28;20527;-60
2024/01/14 09:40:06;;;;;;;33.27;12.47;;;-3.00;78.70;;;-0.85;58.91;97283.69;5071241;28;20041;-60
2024/01/14 09:42:37;;;;;;;38.40;14.53;;;-2.90;79.80;;;-0.81;59.32;97287.78;5070488;28;20049;-60
2024/01/14 09:45:05;;;;;;;41.23;16.73;;;-2.80;80.20;;;-0.78;59.06;97292.78;5070702;28;20043;-60
2024/01/14 09:47:35;;;;;;;32.87;12.80;;;-2.80;79.80;;;-0.72;58.85;97291.56;5086347;28;20049;-60
2024/01/14 09:50:04;;;;;;;31.93;14.20;;;-2.70;79.40;;;-0.67;58.72;97292.94;5069511;28;20499;-58
2024/01/14 09:52:32;;;;;;;31.53;13.13;;;-2.70;79.20;;;-0.65;58.56;97292.84;5069292;28;20423;-57
2024/01/14 09:55:00;;;;;;;35.37;14.03;;;-2.70;78.90;;;-0.62;58.63;97301.31;5070743;28;20045;-57
2024/01/14 09:57:32;;;;;;;28.40;11.73;;;-2.60;78.80;;;-0.58;58.45;97295.88;5070719;28;20053;-57
2024/01/14 10:00:05;;;;;;;39.23;15.27;;;-2.70;77.90;;;-0.57;58.82;97281.88;5070493;28;20052;-57
2024/01/14 10:02:34;;;;;;;31.77;13.25;;;-2.70;78.20;;;-0.56;58.98;97276.56;5069285;28;20075;-55
2024/01/14 10:05:01;;;;;;;38.40;14.47;;;-2.70;78.80;;;-0.55;58.27;97275.59;5068873;28;20055;-56
2024/01/14 10:07:30;;;;;;;32.07;13.43;;;-2.60;78.20;;;-0.57;58.53;97263.56;5070696;28;20044;-53
2024/01/14 10:09:58;;;;;;;38.20;13.53;;;-2.60;78.20;;;-0.53;58.96;97267.66;5069212;28;20040;-56